National Weather Service United States Department of Commerce

Snow for the Southwest Mountains and Northern Plains to Northeast Sunday; More Significant Storm to Impact Eastern States Next Week

A storm crossing the Southwest states will bring heavy mountain snow Sunday into Monday. Further east, a separate storm will track from the Central Plains to the Mid-Atlantic states bringing a swath of ice and snow along and north of it's storm track Sunday into Monday. Next week, a stronger storm is expected to produce heavy rain over the Southeast with snow and ice from the Midwest to Northeast. Read More >

Aviation Forecast Discussion

.AVIATION /00Z SUNDAY THROUGH THURSDAY/...
The following discussion is for KPHL, KPNE, KTTN, KABE, KRDG, 
KILG, KMIV, KACY and surrounding areas.

Tonight...VFR under a clear sky. North wind 5 to 10 knots.

Sunday...VFR with an increase in clouds in the afternoon. 
Northeast wind 6 knots or less becoming southeast.

Outlook...

Sunday night...Snow and/or wintry mix with MVFR/IFR conditions.
Light east winds. 

Monday...Wintry mix in the morning, becoming rain before 
tapering off Monday afternoon. Conditions improve to VFR. West 
to northwest winds around 10 to 15 knots.

Monday night through Tuesday...Mainly VFR conditions expected. 
Northwest to north winds less than 10 knots. High confidence. 

Tuesday night through Wednesday night...VFR will become MVFR by
Tuesday night and then become MVFR/IFR as snow, rain, and a 
wintry mix move through the terminals. Northeast to east winds 
around 10 knots or less. Low confidence with respect to 
precipitation type.

Thursday...Sub-VFR conditions initially, becoming VFR late.

&&

Latest PHL Terminal Aerodrome Forecast (TAF)

FTNA35 KPHL 162337 RRE
KPHL 162333Z 1700/1806 35008KT P6SM SKC
     FM170700 02006KT P6SM SKC
     FM171400 VRB03KT P6SM SCT250
     FM172000 14006KT P6SM BKN100
     FM172300 12006KT P6SM SCT025 OVC050
     FM180200 10004KT 3SM -RA BR OVC010
     TEMPO 1802/1804 -PL

Latest Area Terminal Aerodrome Forecasts (TAFs)

FTUS80 KPNE 162336 RRE
KPNE 162333Z 1700/1724 35008KT P6SM SKC
     FM170700 02006KT P6SM SKC
     FM171400 VRB03KT P6SM SCT250
     FM172000 14004KT P6SM BKN100
     FM172300 11006KT P6SM SCT025 OVC050

FTUS80 KTTN 162336 RRG
KTTN 162333Z 1700/1724 35006KT P6SM SKC
     FM170700 02004KT P6SM SKC
     FM171400 VRB03KT P6SM SCT250
     FM172000 17004KT P6SM BKN100
     FM172300 15004KT P6SM SCT025 OVC050

FTUS41 KILG 162336
KILG 162333Z 1700/1724 35006KT P6SM SKC
     FM170700 02004KT P6SM SKC
     FM171400 VRB03KT P6SM SCT250
     FM171900 13006KT P6SM BKN100
     FM172200 12006KT P6SM SCT025 OVC050

FTUS51 KRDG 162336 RRA
KRDG 162333Z 1700/1724 34006KT P6SM SKC
     FM170800 VRB03KT P6SM SCT250
     FM172000 15004KT P6SM BKN100
     FM172300 13004KT P6SM SCT025 OVC050

FTUS41 KABE 162336
KABE 162333Z 1700/1724 34006KT P6SM SKC
     FM170800 VRB03KT P6SM SCT250
     FM172000 15004KT P6SM BKN100
     FM172300 12004KT P6SM SCT025 OVC050

FTNA35 KACY 162337 RRE
KACY 162333Z 1700/1724 35006KT P6SM SKC
     FM170700 03006KT P6SM SKC
     FM171400 09004KT P6SM SCT250
     FM172000 12006KT P6SM BKN100
     FM172300 13006KT P6SM SCT025 OVC050

FTUS51 KMIV 162336
KMIV 162333Z 1700/1724 34004KT P6SM SKC
     FM170700 01004KT P6SM SKC
     FM171400 VRB03KT P6SM SCT250
     FM172000 13004KT P6SM BKN100
     FM172300 11004KT P6SM SCT025 OVC050

FTUS80 KEWR 162327 RRA
KEWR 162324Z 1700/1806 33011KT P6SM SKC
     FM170600 35008KT P6SM FEW250
     FM171400 02006KT P6SM FEW250
     FM171800 11005KT P6SM SCT250
     FM172000 16006KT P6SM SCT100 BKN200
     FM180300 10006KT 3SM -SNPLRA BR BKN025 OVC050

FTUS80 KLGA 162327 RRC
KLGA 162324Z 1700/1806 33013KT P6SM SKC
     FM170400 35009KT P6SM FEW250
     FM171300 03007KT P6SM FEW250
     FM171800 09006KT P6SM SCT250
     FM172000 15007KT P6SM SCT100 BKN200
     FM180300 11008KT 3SM -SNPLRA BR BKN025 OVC050

FTNA35 KJFK 162331 RRD
KJFK 162324Z 1700/1806 33012KT P6SM SKC
     FM170400 35009KT P6SM FEW250
     FM171300 03006KT P6SM FEW250
     FM171800 14006KT P6SM SCT250
     FM172100 17008KT P6SM SCT100 BKN200
     FM180300 12009KT 3SM -SNPLRA BR BKN025 OVC050

FTUS80 KMDT 170009 AAA
KMDT 170006Z 1700/1724 35006KT P6SM SKC
     FM170600 VRB02KT P6SM SKC
     FM172300 13005KT P6SM -PL OVC030

FTUS80 KBWI 162321 RRB
KBWI 162320Z 1700/1806 34005KT P6SM FEW250
     FM171400 07004KT P6SM SCT200
     FM171800 VRB03KT P6SM BKN060
     FM172100 13005KT P6SM BKN025 OVC035
     FM180000 14004KT 3SM -RAPL SCT008 OVC015

FTUS80 KIAD 162321 RRH
KIAD 162320Z 1700/1806 35005KT P6SM FEW250
     FM171500 10004KT P6SM BKN060
     FM171800 14005KT P6SM BKN060
     FM172200 15006KT P6SM BKN015 OVC035
     FM180000 15006KT 3SM -RAPL SCT008 OVC015

FTUS80 KDCA 162321 RRC
KDCA 162320Z 1700/1806 35005KT P6SM FEW250
     FM171400 07004KT P6SM SCT200
     FM171800 14004KT P6SM BKN060
     FM172300 14005KT P6SM BKN015 OVC035
     FM180000 15005KT 3SM -RA SCT008 OVC015

Raw METAR for Philadelphia International Airport

METAR KPHL 162354Z 36014KT 10SM CLR 04/M08 A2995 RMK AO2 SLP142
     T00441083 10078 20044 53024

Raw METAR for Northeast Philadelphia Regional Airport

METAR KPNE 162354Z 34011KT 10SM CLR 04/M07 A2996 RMK AO2 SLP147
     T00391072 10083 20039 53025

Raw METAR for Trenton/Mercer County Airport

METAR KTTN 162353Z 34005KT 10SM CLR 04/M07 A2995 RMK AO2 SLP135
     T00391072 10083 20039 53028

Raw METAR for Wilmington/New Castle County Airport

METAR KILG 162351Z 32007KT 10SM CLR 01/M07 A2996 RMK AO2 SLP144
     T00111067 10078 20011 53023

Raw METAR for Wings Field Airport

METAR KLOM 170015Z AUTO 35004KT 10SM CLR 01/M07 A2997 RMK AO1

Raw METAR for Doylestown Airport

METAR KDYL 162354Z AUTO 33005KT 10SM CLR 02/M08 A2994 RMK AO2 SLP145
     T00171083 10067 20017 53026

Raw METAR for Coatesville/Chester County Airport

METAR KMQS 170015Z AUTO 32005KT 10SM CLR 01/M06 A2996 RMK AO2

Raw METAR for Mount Holly/South Jersey Regional Airport

METAR KVAY 162354Z AUTO 35007KT 10SM CLR 03/M07 A2995 RMK AO2 SLP141
     T00281072 10072 20028 53026

PHL Vertical Wind Profile Forecast

PHL VWP

KDIX Radar Loop

KDIX Radar

KDOX Radar Loop

KDIX Radar

Visible Satellite

Visible ImageVisible Loop

Infrared Satellite

Infrared ImageInfrared Loop

ZNY Briefing

ZNY Briefing

ZNY SWAP Statement

ZNY SWAP Statement

KPHL Wind Speed Outlook

KPHL Wind Outlook

KPHL Icing Outlook

KPHL Icing  Outlook

KPHL Compression Outlook

KPHL Compression Outlook

ZNY Day 1 SWAP

KPHL Day 1 SWAP

ZNY Day 2 SWAP

KPHL Day 2 SWAP

Turbulence PIREPs

Turbulence PIREPs

Icing PIREPs

Icing PIREPs

Weather/Sky PIREPs

Weather/Sky PIREPs

Current AIRMETs/SIGMETs

Current AIRMETs/SIGMETs

Sierra (Mountains/IFR) AIRMETs

Current 3-hr Forecast 6-hr Forecast

No Plot Available

No Plot Available

No Plot Available

9-hr Forecast 12-hr Forecast

No Plot Available

No Plot Available

Tango (Turbulence/LLWS) AIRMETs

Current 3-hr Forecast 6-hr Forecast

No Plot Available

No Plot Available

No Plot Available

9-hr Forecast 12-hr Forecast

No Plot Available

No Plot Available

Icing AIRMETs

Current 3-hr Forecast 6-hr Forecast

No Plot Available

No Plot Available

No Plot Available

9-hr Forecast 12-hr Forecast

No Plot Available

No Plot Available

Freezing Level AIRMETs

Current 3-hr Forecast 6-hr Forecast

No Plot Available

No Plot Available

No Plot Available

9-hr Forecast 12-hr Forecast

No Plot Available

No Plot Available